Time;durP1;ratioP1;P1;durP2;ratioP2;P2;SDS_P1;SDS_P2;PMS_P1;PMS_P2;Temp;Humidity;BMP_temperature;BMP_pressure;BME280_temperature;BME280_humidity;BME280_pressure;Samples;Min_cycle;Max_cycle;Signal;HPM_P1;HPM_P2
2021/03/17 00:02:07;;;;;;;12.93;10.27;;;6.90;99.90;;;;;;5045208;28;20183;-78
2021/03/17 00:04:33;;;;;;;12.83;10.73;;;6.90;99.90;;;;;;5045462;28;20181;-79
2021/03/17 00:06:59;;;;;;;12.40;10.03;;;6.90;99.90;;;;;;5043989;28;20180;-83
2021/03/17 00:09:24;;;;;;;12.37;10.80;;;6.80;99.90;;;;;;5045328;28;20220;-78
2021/03/17 00:11:50;;;;;;;12.00;10.70;;;6.80;99.90;;;;;;5044960;28;20177;-79
2021/03/17 00:14:15;;;;;;;12.00;9.40;;;6.80;99.90;;;;;;5043763;28;20185;-82
2021/03/17 00:16:41;;;;;;;10.67;8.70;;;6.70;99.90;;;;;;5046083;28;20203;-80
2021/03/17 00:19:07;;;;;;;11.80;10.53;;;6.50;99.90;;;;;;5035042;28;20176;-80
2021/03/17 00:21:32;;;;;;;13.90;11.57;;;6.40;99.90;;;;;;5035333;28;20180;-81
2021/03/17 00:23:58;;;;;;;14.97;12.70;;;6.40;99.90;;;;;;5039976;28;20589;-80
2021/03/17 00:26:23;;;;;;;15.90;13.67;;;6.40;99.90;;;;;;5046551;28;20236;-80
2021/03/17 00:28:49;;;;;;;20.53;16.53;;;6.40;99.90;;;;;;5038957;28;20173;-77
2021/03/17 00:31:15;;;;;;;23.17;18.60;;;6.30;99.90;;;;;;5052330;28;20231;-80
2021/03/17 00:33:40;;;;;;;21.00;16.63;;;6.30;99.90;;;;;;5054251;28;20172;-81
2021/03/17 00:36:06;;;;;;;21.40;15.97;;;6.20;99.90;;;;;;5050653;28;20243;-77
2021/03/17 00:38:32;;;;;;;18.10;14.83;;;6.10;99.90;;;;;;5052890;28;20173;-81
2021/03/17 00:40:57;;;;;;;17.67;14.40;;;6.10;99.90;;;;;;5054964;28;20343;-81
2021/03/17 00:43:23;;;;;;;19.43;15.50;;;6.10;99.90;;;;;;5053937;28;20185;-82
2021/03/17 00:45:49;;;;;;;19.73;15.50;;;6.10;99.90;;;;;;5054675;28;20651;-82
2021/03/17 00:48:14;;;;;;;20.27;15.83;;;6.10;99.90;;;;;;5054288;28;20207;-80
2021/03/17 00:50:40;;;;;;;20.17;16.30;;;6.10;99.90;;;;;;5054543;28;20181;-81
2021/03/17 00:53:05;;;;;;;21.83;17.27;;;6.10;99.90;;;;;;5054700;28;20222;-81
2021/03/17 00:55:31;;;;;;;20.70;16.37;;;6.00;99.90;;;;;;5054524;28;20169;-81
2021/03/17 00:57:58;;;;;;;22.43;16.97;;;6.00;99.90;;;;;;5054846;28;20188;-77
2021/03/17 01:00:24;;;;;;;22.83;17.90;;;5.90;99.90;;;;;;5054593;28;20234;-79
2021/03/17 01:02:50;;;;;;;24.03;18.13;;;6.00;99.90;;;;;;5054398;28;20188;-80
2021/03/17 01:05:16;;;;;;;24.73;18.73;;;6.00;99.90;;;;;;5054341;28;20652;-81
2021/03/17 01:07:42;;;;;;;28.37;21.47;;;6.00;99.90;;;;;;5054459;28;20493;-76
2021/03/17 01:10:15;;;;;;;26.00;19.53;;;6.00;99.90;;;;;;5054258;28;20168;-78
2021/03/17 01:12:42;;;;;;;30.70;22.00;;;6.00;99.90;;;;;;5052885;28;20191;-79
2021/03/17 01:15:10;;;;;;;27.97;22.37;;;6.00;99.90;;;;;;5054323;28;20173;-77
2021/03/17 01:17:36;;;;;;;31.60;24.63;;;6.00;99.90;;;;;;5054004;28;20228;-80
2021/03/17 01:20:03;;;;;;;27.80;22.47;;;6.00;99.90;;;;;;5054033;28;20614;-76
2021/03/17 01:22:29;;;;;;;28.43;21.10;;;6.10;99.90;;;;;;5054102;28;20188;-80
2021/03/17 01:24:54;;;;;;;31.87;23.50;;;6.10;99.90;;;;;;5053658;28;20165;-80
2021/03/17 01:27:20;;;;;;;31.60;24.80;;;6.10;99.90;;;;;;5054094;28;20165;-81
2021/03/17 01:29:45;;;;;;;32.60;25.73;;;6.10;99.90;;;;;;5053547;28;20177;-82
2021/03/17 01:32:11;;;;;;;32.50;25.20;;;6.20;99.90;;;;;;5052803;28;20238;-79
2021/03/17 01:34:37;;;;;;;33.47;25.10;;;6.10;99.90;;;;;;5053920;28;20180;-80
2021/03/17 01:37:02;;;;;;;36.87;27.33;;;6.10;99.90;;;;;;5053567;28;20220;-80
2021/03/17 01:39:28;;;;;;;35.03;25.67;;;6.10;99.90;;;;;;5053809;28;20260;-77
2021/03/17 01:41:54;;;;;;;36.10;27.23;;;6.10;99.90;;;;;;5052340;28;20265;-76
2021/03/17 01:44:19;;;;;;;35.83;28.03;;;6.10;99.90;;;;;;5053479;28;20244;-82
2021/03/17 01:46:45;;;;;;;35.80;27.03;;;6.10;99.90;;;;;;5053516;28;20199;-79
2021/03/17 01:49:11;;;;;;;36.13;28.30;;;6.10;99.90;;;;;;5053708;28;20179;-80
2021/03/17 01:51:37;;;;;;;40.67;28.40;;;6.00;99.90;;;;;;5053521;28;20219;-78
2021/03/17 01:54:05;;;;;;;39.47;30.00;;;6.10;99.90;;;;;;5053558;28;20169;-84
2021/03/17 01:56:31;;;;;;;39.13;30.37;;;6.00;99.90;;;;;;5053281;28;20192;-78
2021/03/17 01:58:57;;;;;;;40.20;30.50;;;6.10;99.90;;;;;;5053173;28;20199;-80
2021/03/17 02:01:22;;;;;;;37.37;28.90;;;6.00;99.90;;;;;;5053212;28;20173;-81
2021/03/17 02:03:48;;;;;;;40.63;31.27;;;6.10;99.90;;;;;;5053355;28;20169;-76
2021/03/17 02:06:14;;;;;;;39.60;30.20;;;6.10;99.90;;;;;;5053069;28;20192;-77
2021/03/17 02:08:42;;;;;;;38.73;28.53;;;6.10;99.90;;;;;;5053161;28;20183;-81
2021/03/17 02:11:11;;;;;;;29.23;20.53;;;6.00;99.90;;;;;;5053321;28;20522;-80
2021/03/17 02:14:17;;;;;;;27.53;19.67;;;6.00;99.90;;;;;;5053058;28;20221;-77
2021/03/17 02:16:46;;;;;;;31.93;23.20;;;5.90;99.90;;;;;;5053014;28;20258;-80
2021/03/17 02:19:11;;;;;;;33.07;24.67;;;5.90;99.90;;;;;;5053403;28;20173;-81
2021/03/17 02:22:15;;;;;;;33.40;25.47;;;5.90;99.90;;;;;;5053352;28;20194;-77
2021/03/17 02:24:46;;;;;;;25.43;19.00;;;5.90;99.90;;;;;;5053230;28;20169;-81
2021/03/17 02:27:47;;;;;;;25.50;17.80;;;5.90;99.90;;;;;;5052879;28;20279;-75
2021/03/17 02:30:37;;;;;;;22.33;15.97;;;5.70;99.90;;;;;;5052863;28;20168;-79
2021/03/17 02:33:33;;;;;;;21.97;17.17;;;5.70;99.90;;;;;;5052951;28;20165;-81
2021/03/17 02:36:35;;;;;;;22.30;18.27;;;5.60;99.90;;;;;;5051786;28;20203;-81
2021/03/17 02:39:11;;;;;;;26.80;20.80;;;5.60;99.90;;;;;;5052948;28;20660;-79
2021/03/17 02:41:47;;;;;;;26.37;20.20;;;5.60;99.90;;;;;;5051175;28;20180;-82
2021/03/17 02:44:17;;;;;;;26.40;21.07;;;5.70;99.90;;;;;;5052548;28;20175;-77
2021/03/17 02:46:45;;;;;;;28.97;21.93;;;5.60;99.90;;;;;;5052697;28;20260;-79
2021/03/17 02:49:19;;;;;;;28.03;21.50;;;5.70;99.90;;;;;;5052916;28;20165;-80
2021/03/17 02:51:53;;;;;;;26.87;20.97;;;5.80;99.90;;;;;;5052550;28;20283;-80
2021/03/17 02:54:20;;;;;;;26.73;21.93;;;5.70;99.90;;;;;;5052694;28;20248;-79
2021/03/17 02:56:52;;;;;;;26.53;19.77;;;5.70;99.90;;;;;;5052377;28;20208;-80
2021/03/17 02:59:21;;;;;;;27.13;21.07;;;5.70;99.90;;;;;;5052900;28;20665;-77
2021/03/17 03:01:52;;;;;;;27.40;19.93;;;5.70;99.90;;;;;;5052496;28;20165;-76
2021/03/17 03:04:18;;;;;;;27.07;21.17;;;5.70;99.90;;;;;;5052713;28;20179;-79
2021/03/17 03:06:46;;;;;;;26.30;20.50;;;5.70;99.90;;;;;;5052481;28;20188;-80
2021/03/17 03:09:12;;;;;;;26.57;21.03;;;5.70;99.90;;;;;;5052562;28;20199;-79
2021/03/17 03:11:38;;;;;;;29.40;22.77;;;5.70;99.90;;;;;;5050945;28;20716;-82
2021/03/17 03:14:05;;;;;;;27.27;21.40;;;5.70;99.90;;;;;;5052670;28;20242;-78
2021/03/17 03:16:35;;;;;;;27.23;22.03;;;5.70;99.90;;;;;;5052634;28;20236;-77
2021/03/17 03:19:03;;;;;;;27.80;21.17;;;5.70;99.90;;;;;;5052410;28;20219;-80
2021/03/17 03:21:31;;;;;;;27.03;21.37;;;5.70;99.90;;;;;;5052652;28;20185;-81
2021/03/17 03:23:58;;;;;;;27.50;21.53;;;5.70;99.90;;;;;;5051603;28;20272;-82
2021/03/17 03:26:24;;;;;;;28.80;22.67;;;5.70;99.90;;;;;;5052296;28;20318;-80
2021/03/17 03:28:52;;;;;;;27.97;20.47;;;5.70;99.90;;;;;;5052490;28;20169;-80
2021/03/17 03:31:19;;;;;;;26.07;21.00;;;5.70;99.90;;;;;;5053249;28;20170;-79
2021/03/17 03:33:45;;;;;;;29.40;21.47;;;5.70;99.90;;;;;;5052622;28;20255;-81
2021/03/17 03:36:12;;;;;;;30.23;23.20;;;5.70;99.90;;;;;;5052330;28;20189;-80
2021/03/17 03:38:37;;;;;;;28.73;21.73;;;5.70;99.90;;;;;;5051454;28;20176;-77
2021/03/17 03:41:03;;;;;;;28.40;23.50;;;5.80;99.90;;;;;;5052220;28;20496;-80
2021/03/17 03:43:31;;;;;;;28.13;22.07;;;5.80;99.90;;;;;;5052385;28;20204;-76
2021/03/17 03:45:56;;;;;;;33.43;23.37;;;5.80;99.90;;;;;;5052386;28;20175;-79
2021/03/17 03:48:22;;;;;;;32.00;23.97;;;5.80;99.90;;;;;;5054375;28;20268;-80
2021/03/17 03:50:49;;;;;;;32.90;25.03;;;5.90;99.90;;;;;;5055882;28;20184;-79
2021/03/17 03:53:31;;;;;;;31.90;24.50;;;5.90;99.90;;;;;;5056131;28;20173;-81
2021/03/17 03:56:04;;;;;;;31.70;24.30;;;5.90;99.90;;;;;;5055397;28;20228;-78
2021/03/17 03:58:52;;;;;;;32.77;24.73;;;5.90;99.90;;;;;;5055850;28;20227;-83
2021/03/17 04:01:25;;;;;;;32.07;25.03;;;6.00;99.90;;;;;;5055880;28;20641;-76
2021/03/17 04:03:55;;;;;;;36.23;26.13;;;6.10;99.90;;;;;;5056057;28;20173;-81
2021/03/17 04:06:21;;;;;;;34.97;26.63;;;6.10;99.90;;;;;;5053768;28;20775;-79
2021/03/17 04:08:54;;;;;;;36.27;26.97;;;6.20;99.90;;;;;;5054396;28;20220;-80
2021/03/17 04:11:22;;;;;;;36.57;26.90;;;6.30;99.90;;;;;;5055358;28;20242;-79
2021/03/17 04:13:48;;;;;;;35.00;27.13;;;6.30;99.90;;;;;;5055799;28;20183;-79
2021/03/17 04:16:16;;;;;;;36.60;28.30;;;6.40;99.90;;;;;;5055478;28;20692;-82
2021/03/17 04:18:45;;;;;;;35.90;25.47;;;6.50;99.90;;;;;;5048201;28;20671;-79
2021/03/17 04:21:25;;;;;;;37.37;27.77;;;6.50;99.90;;;;;;5034194;28;20185;-82
2021/03/17 04:23:53;;;;;;;35.67;27.67;;;6.60;99.90;;;;;;5035327;28;20169;-80
2021/03/17 04:26:20;;;;;;;35.83;26.53;;;6.40;99.90;;;;;;5034244;28;20231;-81
2021/03/17 04:28:48;;;;;;;35.23;27.53;;;6.40;99.90;;;;;;5035309;28;20172;-80
2021/03/17 04:31:15;;;;;;;32.93;27.23;;;6.40;99.90;;;;;;5035526;28;20165;-78
2021/03/17 04:33:41;;;;;;;32.57;25.70;;;6.40;99.90;;;;;;5035121;28;20161;-76
2021/03/17 04:36:09;;;;;;;32.97;26.47;;;6.40;99.90;;;;;;5035180;28;20212;-77
2021/03/17 04:38:36;;;;;;;32.97;25.53;;;6.40;99.90;;;;;;5034670;28;20256;-77
2021/03/17 04:41:02;;;;;;;33.10;25.70;;;6.40;99.90;;;;;;5033936;28;20593;-76
2021/03/17 04:43:29;;;;;;;29.00;25.23;;;6.40;99.90;;;;;;5035180;28;20181;-82
2021/03/17 04:45:55;;;;;;;30.57;24.63;;;6.40;99.90;;;;;;5034223;28;20327;-81
2021/03/17 04:48:23;;;;;;;31.67;25.40;;;6.40;99.90;;;;;;5034896;28;20273;-82
2021/03/17 04:50:51;;;;;;;32.70;25.43;;;6.50;99.90;;;;;;5034876;28;20217;-79
2021/03/17 04:53:17;;;;;;;30.33;24.67;;;6.60;99.90;;;;;;5033623;28;20630;-81
2021/03/17 04:55:42;;;;;;;30.60;24.07;;;6.50;99.90;;;;;;5034616;28;20474;-81
2021/03/17 04:58:11;;;;;;;29.37;23.13;;;6.40;99.90;;;;;;5034815;28;20724;-78
2021/03/17 05:00:39;;;;;;;29.30;23.63;;;6.50;99.90;;;;;;5032508;28;20284;-80
2021/03/17 05:03:08;;;;;;;29.67;24.43;;;6.40;99.90;;;;;;5034735;28;20661;-76
2021/03/17 05:05:38;;;;;;;29.53;23.43;;;6.50;99.90;;;;;;5034523;28;20166;-77
2021/03/17 05:08:06;;;;;;;29.33;23.87;;;6.50;99.90;;;;;;5034536;28;20224;-79
2021/03/17 05:10:33;;;;;;;32.13;25.63;;;6.50;99.90;;;;;;5034403;28;20162;-80
2021/03/17 05:12:59;;;;;;;29.90;24.30;;;6.60;99.90;;;;;;5033178;28;20624;-81
2021/03/17 05:15:25;;;;;;;28.50;22.00;;;6.70;99.90;;;;;;5034533;28;20253;-79
2021/03/17 05:17:52;;;;;;;29.30;23.03;;;6.70;99.90;;;;;;5034030;28;20658;-80
2021/03/17 05:20:20;;;;;;;26.73;21.67;;;6.60;99.90;;;;;;5034339;28;20197;-78
2021/03/17 05:22:48;;;;;;;27.90;23.17;;;6.60;99.90;;;;;;5033875;28;20542;-80
2021/03/17 05:25:17;;;;;;;26.03;21.20;;;6.60;99.90;;;;;;5034378;28;20538;-83
2021/03/17 05:28:05;;;;;;;26.37;20.40;;;6.60;99.90;;;;;;5034182;28;20197;-76
2021/03/17 05:30:41;;;;;;;24.93;20.17;;;6.60;99.90;;;;;;5033507;28;20189;-80
2021/03/17 05:33:09;;;;;;;25.30;19.93;;;6.60;99.90;;;;;;5034142;28;20169;-78
2021/03/17 05:35:35;;;;;;;23.03;18.30;;;6.60;99.90;;;;;;5034150;28;20176;-83
2021/03/17 05:38:02;;;;;;;23.73;18.43;;;6.60;99.90;;;;;;5033639;28;20205;-77
2021/03/17 05:40:28;;;;;;;21.50;17.40;;;6.70;99.90;;;;;;5033965;28;20162;-79
2021/03/17 05:42:58;;;;;;;21.03;16.30;;;6.60;99.90;;;;;;5033953;28;20668;-81
2021/03/17 05:45:25;;;;;;;22.80;17.57;;;6.50;99.90;;;;;;5033599;28;20169;-80
2021/03/17 05:47:51;;;;;;;23.40;18.47;;;6.50;99.90;;;;;;5033852;28;20186;-80
2021/03/17 05:50:19;;;;;;;23.20;19.07;;;6.50;99.90;;;;;;5033747;28;20272;-78
2021/03/17 05:52:45;;;;;;;22.57;17.93;;;6.60;99.90;;;;;;5033587;28;20180;-80
2021/03/17 05:55:13;;;;;;;23.33;17.77;;;6.50;99.90;;;;;;5033670;28;20173;-81
2021/03/17 05:57:40;;;;;;;23.93;19.40;;;6.60;99.90;;;;;;5033283;28;20201;-82
2021/03/17 06:00:19;;;;;;;25.73;19.97;;;6.60;99.90;;;;;;5033489;28;20166;-82
2021/03/17 06:02:44;;;;;;;24.17;18.80;;;6.70;99.90;;;;;;5033681;28;20162;-76
2021/03/17 06:05:11;;;;;;;23.20;18.53;;;6.60;99.90;;;;;;5033326;28;20629;-80
2021/03/17 06:07:54;;;;;;;24.77;19.53;;;6.50;99.90;;;;;;5031849;28;20205;-80
2021/03/17 06:10:20;;;;;;;23.33;18.47;;;6.60;99.90;;;;;;5033006;28;20173;-76
2021/03/17 06:12:50;;;;;;;25.97;21.00;;;6.70;99.90;;;;;;5033127;28;20173;-79
2021/03/17 06:15:21;;;;;;;26.07;19.73;;;6.70;99.90;;;;;;5032178;28;20182;-80
2021/03/17 06:17:53;;;;;;;26.00;19.60;;;6.80;99.90;;;;;;5032984;28;20219;-82
2021/03/17 06:20:19;;;;;;;25.33;19.87;;;6.80;99.90;;;;;;5032708;28;20630;-77
2021/03/17 06:22:45;;;;;;;26.03;21.07;;;6.80;99.90;;;;;;5032782;28;20260;-79
2021/03/17 06:25:11;;;;;;;26.97;21.30;;;6.90;99.90;;;;;;5033010;28;20595;-76
2021/03/17 06:27:38;;;;;;;25.80;20.43;;;7.00;99.90;;;;;;5032917;28;20247;-79
2021/03/17 06:30:05;;;;;;;24.63;20.00;;;6.90;99.90;;;;;;5031896;28;20630;-80
2021/03/17 06:32:32;;;;;;;24.50;20.90;;;6.90;99.90;;;;;;5032740;28;20586;-80
2021/03/17 06:34:58;;;;;;;26.73;19.50;;;6.90;99.90;;;;;;5032375;28;20242;-80
2021/03/17 06:37:35;;;;;;;25.70;20.17;;;7.00;99.90;;;;;;5033554;28;20208;-81
2021/03/17 06:40:01;;;;;;;23.30;17.57;;;7.10;99.90;;;;;;5033240;28;20253;-79
2021/03/17 06:42:41;;;;;;;23.63;16.93;;;7.20;99.90;;;;;;5032475;28;20608;-79
2021/03/17 06:45:07;;;;;;;24.40;16.10;;;7.10;99.90;;;;;;5032096;28;20176;-77
2021/03/17 06:47:33;;;;;;;19.33;13.97;;;7.00;99.90;;;;;;5032174;28;20181;-81
2021/03/17 06:49:58;;;;;;;19.60;14.33;;;7.00;99.90;;;;;;5032258;28;20165;-76
2021/03/17 06:52:34;;;;;;;16.63;13.40;;;7.00;99.90;;;;;;5032131;28;20236;-81
2021/03/17 06:55:04;;;;;;;18.10;13.73;;;7.00;99.90;;;;;;5031127;28;20296;-80
2021/03/17 06:57:29;;;;;;;16.87;11.93;;;7.00;99.90;;;;;;5032157;28;20669;-81
2021/03/17 07:00:20;;;;;;;17.17;12.90;;;7.00;99.90;;;;;;5032183;28;20232;-80
2021/03/17 07:03:13;;;;;;;15.73;10.37;;;7.20;99.90;;;;;;5031880;28;20170;-80
2021/03/17 07:05:42;;;;;;;18.03;10.87;;;7.20;99.90;;;;;;5031940;28;20265;-80
2021/03/17 07:08:12;;;;;;;14.00;8.37;;;7.10;99.90;;;;;;5032272;28;20228;-78
2021/03/17 07:10:45;;;;;;;16.50;8.53;;;7.10;99.90;;;;;;5031994;28;20177;-79
2021/03/17 07:13:14;;;;;;;15.33;8.53;;;7.10;99.90;;;;;;5032109;28;20177;-81
2021/03/17 07:15:41;;;;;;;15.63;9.60;;;7.10;99.90;;;;;;5032084;28;20627;-81
2021/03/17 07:18:37;;;;;;;14.63;8.40;;;7.20;99.90;;;;;;5030260;28;20243;-78
2021/03/17 07:21:05;;;;;;;13.17;8.50;;;7.30;99.90;;;;;;5030331;28;20182;-85
2021/03/17 07:23:42;;;;;;;16.07;9.00;;;7.40;99.90;;;;;;5034146;28;20170;-83
2021/03/17 07:26:14;;;;;;;14.23;7.70;;;7.40;99.90;;;;;;5035596;28;20184;-82
2021/03/17 07:28:49;;;;;;;13.13;7.23;;;7.40;99.90;;;;;;5035263;28;20635;-79
2021/03/17 07:31:30;;;;;;;13.03;7.07;;;7.20;99.90;;;;;;5034362;28;20563;-79
2021/03/17 07:34:09;;;;;;;12.40;6.93;;;7.30;99.90;;;;;;5014464;28;20224;-78
2021/03/17 07:36:43;;;;;;;16.20;7.17;;;7.30;99.90;;;;;;5016097;28;20240;-83
2021/03/17 07:39:12;;;;;;;12.90;6.50;;;7.40;99.90;;;;;;5023483;28;20169;-81
2021/03/17 07:41:38;;;;;;;11.67;6.07;;;7.40;99.90;;;;;;5043293;28;20274;-81
2021/03/17 07:44:07;;;;;;;11.63;6.00;;;7.40;99.90;;;;;;5045181;28;20173;-84
2021/03/17 07:46:34;;;;;;;13.93;6.00;;;7.40;99.90;;;;;;5023132;28;20183;-83
2021/03/17 07:49:00;;;;;;;16.83;6.77;;;7.40;99.90;;;;;;5050038;28;20173;-79
2021/03/17 07:51:27;;;;;;;15.90;5.40;;;7.40;99.90;;;;;;5055261;28;20645;-77
2021/03/17 07:53:56;;;;;;;12.60;6.13;;;7.40;99.90;;;;;;5054732;28;20176;-79
2021/03/17 07:56:24;;;;;;;13.50;5.33;;;7.40;99.90;;;;;;5047119;28;20189;-79
2021/03/17 07:58:51;;;;;;;15.80;5.77;;;7.30;99.90;;;;;;5035185;28;20256;-78
2021/03/17 08:01:18;;;;;;;11.37;5.37;;;7.30;99.90;;;;;;5034761;28;20241;-80
2021/03/17 08:03:46;;;;;;;16.43;5.60;;;7.40;99.90;;;;;;5035086;28;20485;-79
2021/03/17 08:06:17;;;;;;;11.70;5.60;;;7.40;99.90;;;;;;5033888;28;20166;-78
2021/03/17 08:08:44;;;;;;;10.33;3.87;;;7.40;99.90;;;;;;5034671;28;20170;-83
2021/03/17 08:11:16;;;;;;;11.10;4.37;;;7.20;99.90;;;;;;5035541;28;20228;-84
2021/03/17 08:13:52;;;;;;;6.67;4.00;;;7.20;99.90;;;;;;5045746;28;20272;-80
2021/03/17 08:16:30;;;;;;;9.33;3.83;;;7.30;99.90;;;;;;5052114;28;20236;-80
2021/03/17 08:18:56;;;;;;;12.20;4.27;;;7.20;99.90;;;;;;5054549;28;20234;-80
2021/03/17 08:21:51;;;;;;;8.27;3.90;;;7.30;99.90;;;;;;5049000;28;20571;-83
2021/03/17 08:24:38;;;;;;;6.60;3.43;;;7.40;99.90;;;;;;5014851;28;20517;-85
2021/03/17 08:27:07;;;;;;;8.50;4.00;;;7.40;99.90;;;;;;5053876;28;20169;-79
2021/03/17 08:29:40;;;;;;;5.93;3.30;;;7.40;99.90;;;;;;5049436;28;20184;-82
2021/03/17 08:32:07;;;;;;;6.17;3.33;;;7.50;99.90;;;;;;5035310;28;20209;-82
2021/03/17 08:34:34;;;;;;;6.20;3.20;;;7.40;99.90;;;;;;5032415;28;20205;-80
2021/03/17 08:37:08;;;;;;;5.37;2.77;;;7.50;99.90;;;;;;5030538;28;20268;-82
2021/03/17 08:39:36;;;;;;;6.67;3.30;;;7.40;99.90;;;;;;5042342;28;20232;-82
2021/03/17 08:42:03;;;;;;;7.77;3.23;;;7.40;99.90;;;;;;5038115;28;20182;-79
2021/03/17 08:44:43;;;;;;;7.73;3.70;;;7.40;99.90;;;;;;5035206;28;20178;-79
2021/03/17 08:47:37;;;;;;;6.77;3.67;;;7.40;99.90;;;;;;5039643;28;20628;-79
2021/03/17 08:50:15;;;;;;;9.07;4.10;;;7.40;99.90;;;;;;5039028;28;20197;-80
2021/03/17 08:52:46;;;;;;;9.20;4.03;;;7.40;99.90;;;;;;5034990;28;20208;-79
2021/03/17 08:55:36;;;;;;;8.00;4.27;;;7.40;99.90;;;;;;5035841;28;20174;-78
2021/03/17 08:58:06;;;;;;;8.37;4.73;;;7.40;99.90;;;;;;5036353;28;20271;-78
2021/03/17 09:00:52;;;;;;;8.20;4.87;;;7.50;99.90;;;;;;5035398;28;20170;-80
2021/03/17 09:03:37;;;;;;;4.60;3.27;;;7.50;99.90;;;;;;5015722;28;20198;-81
2021/03/17 09:06:07;;;;;;;8.03;5.10;;;7.40;99.90;;;;;;5034969;28;20693;-81
2021/03/17 09:08:53;;;;;;;6.73;4.23;;;7.40;99.90;;;;;;5056840;28;20169;-78
2021/03/17 09:11:31;;;;;;;8.13;3.70;;;7.40;99.90;;;;;;5059111;28;20256;-84
2021/03/17 09:14:05;;;;;;;5.20;3.07;;;7.30;99.90;;;;;;5049562;28;20178;-83
2021/03/17 09:16:33;;;;;;;5.20;3.47;;;7.40;99.90;;;;;;5034936;28;20201;-83
2021/03/17 09:19:05;;;;;;;4.40;3.10;;;7.40;99.90;;;;;;5033946;28;20256;-82
2021/03/17 09:21:50;;;;;;;6.67;2.90;;;7.50;99.90;;;;;;5034050;28;20213;-83
2021/03/17 09:24:33;;;;;;;4.93;3.00;;;7.60;99.90;;;;;;5049079;28;20240;-83
2021/03/17 09:27:08;;;;;;;7.50;2.87;;;7.70;99.90;;;;;;5054315;28;20204;-81
2021/03/17 09:29:35;;;;;;;4.43;2.20;;;7.80;99.90;;;;;;5043557;28;20181;-79
2021/03/17 09:32:02;;;;;;;6.13;2.63;;;7.80;98.80;;;;;;5034005;28;20178;-77
2021/03/17 09:34:34;;;;;;;3.53;2.50;;;7.80;97.60;;;;;;5034777;28;20174;-79
2021/03/17 09:37:10;;;;;;;3.30;2.20;;;7.70;96.60;;;;;;5032967;28;20567;-78
2021/03/17 09:39:37;;;;;;;4.30;2.60;;;7.70;96.80;;;;;;5033987;28;20729;-81
2021/03/17 09:42:04;;;;;;;4.73;2.93;;;7.70;97.40;;;;;;5030993;28;20539;-82
2021/03/17 09:44:29;;;;;;;5.27;2.60;;;7.70;97.40;;;;;;5032655;28;20178;-80
2021/03/17 09:46:55;;;;;;;5.00;2.50;;;7.70;96.60;;;;;;5035070;28;20227;-81
2021/03/17 09:49:26;;;;;;;3.03;2.60;;;7.80;96.40;;;;;;5051873;28;20192;-81
2021/03/17 09:51:54;;;;;;;8.77;3.17;;;7.70;96.50;;;;;;5052500;28;20546;-85
2021/03/17 09:54:24;;;;;;;4.03;3.00;;;7.60;96.50;;;;;;5052675;28;20208;-80
2021/03/17 09:56:58;;;;;;;5.83;3.00;;;7.60;97.20;;;;;;5053690;28;20197;-83
2021/03/17 09:59:28;;;;;;;6.17;3.47;;;7.60;97.00;;;;;;5053391;28;20629;-80
2021/03/17 10:02:05;;;;;;;7.30;3.30;;;7.60;96.80;;;;;;5052889;28;20165;-83
2021/03/17 10:04:36;;;;;;;7.63;3.60;;;7.50;95.80;;;;;;5051650;28;20169;-81
2021/03/17 10:07:05;;;;;;;7.33;4.10;;;7.50;96.20;;;;;;5030754;28;20272;-78
2021/03/17 10:09:33;;;;;;;7.20;4.13;;;7.60;96.50;;;;;;5031040;28;20173;-79
2021/03/17 10:12:22;;;;;;;9.73;4.23;;;7.80;97.50;;;;;;5033028;28;20196;-83
2021/03/17 10:14:48;;;;;;;4.93;3.77;;;8.00;96.20;;;;;;5035012;28;20189;-81
2021/03/17 10:17:16;;;;;;;5.30;4.00;;;7.90;95.60;;;;;;5032485;28;20201;-83
2021/03/17 10:19:42;;;;;;;6.00;4.30;;;7.80;95.70;;;;;;5030865;28;20174;-83
2021/03/17 10:22:09;;;;;;;5.13;4.10;;;7.70;95.30;;;;;;5032340;28;20189;-80
2021/03/17 10:24:46;;;;;;;5.77;4.77;;;7.60;95.50;;;;;;5032255;28;20173;-83
2021/03/17 10:27:18;;;;;;;5.33;4.10;;;7.60;96.70;;;;;;5032459;28;20650;-82
2021/03/17 10:29:46;;;;;;;5.83;4.40;;;7.50;95.60;;;;;;5031634;28;20209;-79
2021/03/17 10:32:22;;;;;;;5.40;4.70;;;7.40;95.50;;;;;;5029592;28;20256;-81
2021/03/17 10:34:49;;;;;;;5.67;4.10;;;7.50;95.60;;;;;;5032332;28;20227;-79
2021/03/17 10:37:20;;;;;;;5.67;3.83;;;7.40;95.00;;;;;;5032226;28;20213;-78
2021/03/17 10:39:47;;;;;;;5.03;4.23;;;7.30;94.60;;;;;;5032348;28;20252;-81
2021/03/17 10:42:22;;;;;;;4.50;4.10;;;7.30;95.60;;;;;;5030372;28;20173;-81
2021/03/17 10:45:10;;;;;;;5.77;5.27;;;7.30;95.80;;;;;;5032463;28;20169;-80
2021/03/17 10:47:36;;;;;;;8.27;5.37;;;7.30;95.60;;;;;;5040626;28;20238;-80
2021/03/17 10:50:09;;;;;;;8.10;6.40;;;7.30;95.30;;;;;;5052066;28;20181;-80
2021/03/17 10:52:40;;;;;;;7.27;6.00;;;7.30;96.00;;;;;;5051956;28;20222;-81
2021/03/17 10:55:12;;;;;;;7.93;6.00;;;7.20;96.10;;;;;;5050823;28;20188;-80
2021/03/17 10:57:37;;;;;;;5.47;4.97;;;7.20;96.00;;;;;;5050719;28;20790;-81
2021/03/17 11:00:11;;;;;;;5.80;4.30;;;7.20;96.30;;;;;;5053331;28;20201;-83
2021/03/17 11:02:36;;;;;;;5.53;4.70;;;7.20;95.80;;;;;;5052757;28;20513;-79
2021/03/17 11:05:07;;;;;;;4.80;4.23;;;7.20;95.80;;;;;;5045522;28;20638;-79
2021/03/17 11:07:57;;;;;;;6.03;4.70;;;7.20;95.90;;;;;;5031849;28;20248;-83
2021/03/17 11:10:32;;;;;;;7.03;5.00;;;7.30;95.30;;;;;;5031520;28;20176;-82
2021/03/17 11:13:21;;;;;;;5.23;4.73;;;7.30;94.60;;;;;;5031391;28;20198;-82
2021/03/17 11:15:49;;;;;;;6.70;4.50;;;7.30;94.20;;;;;;5030719;28;20185;-82
2021/03/17 11:18:43;;;;;;;4.40;4.00;;;7.30;94.50;;;;;;5031589;28;20205;-80
2021/03/17 11:21:16;;;;;;;5.87;3.43;;;7.30;95.00;;;;;;5031380;28;20174;-79
2021/03/17 11:23:43;;;;;;;3.40;2.37;;;7.20;94.50;;;;;;5031781;28;20681;-82
2021/03/17 11:26:20;;;;;;;4.50;2.50;;;7.10;95.00;;;;;;5030084;28;20178;-83
2021/03/17 11:28:46;;;;;;;3.97;2.70;;;7.20;96.40;;;;;;5030678;28;20268;-80
2021/03/17 11:31:20;;;;;;;4.80;2.40;;;7.10;95.30;;;;;;5032029;28;20173;-83
2021/03/17 11:33:46;;;;;;;3.47;2.07;;;7.10;96.40;;;;;;5031631;28;20166;-84
2021/03/17 11:36:12;;;;;;;2.77;1.90;;;6.90;96.50;;;;;;5032474;28;20696;-81
2021/03/17 11:38:38;;;;;;;2.27;1.80;;;6.90;96.90;;;;;;5038506;28;20208;-80
2021/03/17 11:41:03;;;;;;;3.73;1.93;;;6.90;97.60;;;;;;5033630;28;20174;-82
2021/03/17 11:43:31;;;;;;;4.13;2.13;;;7.00;97.50;;;;;;5042186;28;20600;-86
2021/03/17 11:45:59;;;;;;;2.97;1.83;;;7.00;98.00;;;;;;5037181;28;20192;-87
2021/03/17 11:48:27;;;;;;;6.33;2.00;;;7.10;98.00;;;;;;5051482;28;20172;-79
2021/03/17 11:50:54;;;;;;;3.77;1.83;;;7.00;96.90;;;;;;5052698;28;20176;-81
2021/03/17 11:53:21;;;;;;;5.03;2.13;;;7.00;96.70;;;;;;5052363;28;20169;-80
2021/03/17 11:55:48;;;;;;;3.73;2.00;;;7.10;96.20;;;;;;5049800;28;20177;-79
2021/03/17 11:58:14;;;;;;;5.17;2.20;;;7.10;96.50;;;;;;5037227;28;20232;-86
2021/03/17 12:00:40;;;;;;;3.67;1.93;;;7.20;94.80;;;;;;5031893;28;20170;-79
2021/03/17 12:03:07;;;;;;;5.10;2.10;;;7.20;94.30;;;;;;5031552;28;20261;-80
2021/03/17 12:05:34;;;;;;;3.10;1.97;;;7.20;94.00;;;;;;5033014;28;20161;-82
2021/03/17 12:08:00;;;;;;;5.37;2.37;;;7.20;93.70;;;;;;5039638;28;20192;-84
2021/03/17 12:10:26;;;;;;;5.00;2.23;;;7.20;94.40;;;;;;5045269;28;20196;-82
2021/03/17 12:12:52;;;;;;;3.23;2.07;;;7.10;94.90;;;;;;5041703;28;20665;-78
2021/03/17 12:15:20;;;;;;;4.80;2.77;;;7.20;94.70;;;;;;5033894;28;20174;-80
2021/03/17 12:17:47;;;;;;;4.37;3.03;;;7.20;94.60;;;;;;5037677;28;20752;-87
2021/03/17 12:20:14;;;;;;;4.03;2.50;;;7.20;94.60;;;;;;5037771;28;20168;-81
2021/03/17 12:22:40;;;;;;;5.33;2.30;;;7.10;94.50;;;;;;5035361;28;20178;-82
2021/03/17 12:25:10;;;;;;;5.03;2.70;;;7.10;94.50;;;;;;5044265;28;20165;-86
2021/03/17 12:27:37;;;;;;;6.63;2.77;;;7.10;93.80;;;;;;5054821;28;20218;-87
2021/03/17 12:30:09;;;;;;;8.30;3.50;;;7.10;94.20;;;;;;5046592;28;20176;-83
2021/03/17 12:32:34;;;;;;;3.53;2.30;;;7.20;93.70;;;;;;5033911;28;20260;-81
2021/03/17 12:35:00;;;;;;;8.90;3.47;;;7.20;92.80;;;;;;5033842;28;20165;-85
2021/03/17 12:37:26;;;;;;;5.17;2.10;;;7.30;93.50;;;;;;5034436;28;20216;-87
2021/03/17 12:39:51;;;;;;;5.57;2.27;;;7.30;93.70;;;;;;5034036;28;20166;-80
2021/03/17 12:42:17;;;;;;;5.87;2.57;;;7.30;93.80;;;;;;5043409;28;20526;-79
2021/03/17 12:44:43;;;;;;;8.03;2.70;;;7.40;94.30;;;;;;5053632;28;20201;-87
2021/03/17 12:47:08;;;;;;;5.80;2.20;;;7.50;94.00;;;;;;5044036;28;20214;-82
2021/03/17 12:49:36;;;;;;;3.63;2.07;;;7.50;92.90;;;;;;5034641;28;20150;-86
2021/03/17 12:52:02;;;;;;;4.13;2.00;;;7.60;91.50;;;;;;5034400;28;20178;-80
2021/03/17 12:54:28;;;;;;;6.90;2.20;;;7.60;92.20;;;;;;5036048;28;20554;-89
2021/03/17 12:56:54;;;;;;;7.23;2.47;;;7.70;90.60;;;;;;5042575;28;20392;-86
2021/03/17 12:59:19;;;;;;;8.67;1.90;;;7.80;90.40;;;;;;5034183;28;20312;-83
2021/03/17 13:01:45;;;;;;;6.03;2.60;;;7.90;89.00;;;;;;5041357;28;20576;-90